Time;durP1;ratioP1;P1;durP2;ratioP2;P2;SDS_P1;SDS_P2;PMS_P1;PMS_P2;Temp;Humidity;BMP_temperature;BMP_pressure;BME280_temperature;BME280_humidity;BME280_pressure;Samples;Min_cycle;Max_cycle;Signal;HPM_P1;HPM_P2
2021/11/26 00:02:23;;;;;;;42.83;22.83;;;4.30;99.90;;;;;;4980393;28;20434;-61
2021/11/26 00:04:50;;;;;;;41.03;21.53;;;4.20;99.90;;;;;;4982119;28;20544;-61
2021/11/26 00:07:17;;;;;;;44.40;23.43;;;4.10;99.90;;;;;;4984063;28;20436;-61
2021/11/26 00:09:43;;;;;;;47.33;23.70;;;4.00;99.90;;;;;;4980814;28;20457;-61
2021/11/26 00:12:09;;;;;;;41.27;22.27;;;4.10;99.90;;;;;;4981131;28;20504;-61
2021/11/26 00:14:41;;;;;;;36.47;21.30;;;4.30;99.90;;;;;;4981066;28;20254;-61
2021/11/26 00:17:14;;;;;;;40.97;21.97;;;4.30;99.90;;;;;;4981774;28;20871;-61
2021/11/26 00:19:41;;;;;;;40.80;23.50;;;4.40;99.90;;;;;;4982187;28;20466;-61
2021/11/26 00:22:07;;;;;;;37.20;21.80;;;4.50;99.90;;;;;;4980398;28;20858;-61
2021/11/26 00:24:33;;;;;;;40.87;22.00;;;4.30;99.90;;;;;;4986047;28;20429;-61
2021/11/26 00:26:59;;;;;;;43.20;23.80;;;4.10;99.90;;;;;;4980771;28;21366;-61
2021/11/26 00:29:24;;;;;;;47.00;25.47;;;4.20;99.90;;;;;;4961292;28;20214;-60
2021/11/26 00:31:50;;;;;;;38.13;20.57;;;4.10;99.90;;;;;;4981671;28;20676;-60
2021/11/26 00:34:15;;;;;;;42.60;22.00;;;4.20;99.90;;;;;;4981574;28;20285;-60
2021/11/26 00:36:41;;;;;;;38.87;22.60;;;4.30;99.90;;;;;;4978184;28;20379;-60
2021/11/26 00:39:07;;;;;;;42.70;24.30;;;4.20;99.90;;;;;;4975707;28;20732;-60
2021/11/26 00:41:33;;;;;;;42.87;23.37;;;4.10;99.90;;;;;;4978532;28;20306;-60
2021/11/26 00:43:58;;;;;;;38.67;21.27;;;4.30;99.90;;;;;;4962637;28;20189;-62
2021/11/26 00:46:24;;;;;;;43.30;22.80;;;4.10;99.90;;;;;;4977801;28;20259;-60
2021/11/26 00:48:50;;;;;;;41.67;24.10;;;4.20;99.90;;;;;;4976800;28;20214;-60
2021/11/26 00:51:16;;;;;;;42.77;23.50;;;4.10;99.90;;;;;;4981721;28;20442;-60
2021/11/26 00:53:42;;;;;;;39.90;20.67;;;4.40;99.90;;;;;;4975743;28;20528;-61
2021/11/26 00:56:08;;;;;;;35.67;21.07;;;4.30;99.90;;;;;;4977431;28;20430;-60
2021/11/26 00:58:33;;;;;;;36.90;22.30;;;4.10;99.90;;;;;;4980509;28;20469;-60
2021/11/26 01:00:59;;;;;;;47.93;25.23;;;4.20;99.90;;;;;;4977691;28;20213;-60
2021/11/26 01:03:25;;;;;;;39.60;21.47;;;4.20;99.90;;;;;;4976968;28;20181;-60
2021/11/26 01:05:50;;;;;;;41.37;22.43;;;4.30;99.90;;;;;;4980012;28;20186;-60
2021/11/26 01:08:17;;;;;;;46.30;22.57;;;4.30;99.90;;;;;;4977058;28;20981;-60
2021/11/26 01:10:43;;;;;;;41.53;22.70;;;4.40;99.90;;;;;;4977746;28;20194;-60
2021/11/26 01:13:09;;;;;;;46.03;24.87;;;4.30;99.90;;;;;;4979674;28;20433;-60
2021/11/26 01:15:36;;;;;;;40.77;23.80;;;4.20;99.90;;;;;;4976555;28;20438;-60
2021/11/26 01:18:02;;;;;;;37.87;21.83;;;4.30;99.90;;;;;;4977744;28;20820;-60
2021/11/26 01:20:31;;;;;;;41.87;23.80;;;4.30;99.90;;;;;;4977584;28;20464;-60
2021/11/26 01:22:58;;;;;;;52.10;24.97;;;4.30;99.90;;;;;;4974373;28;20432;-60
2021/11/26 01:25:24;;;;;;;48.53;26.70;;;4.30;99.90;;;;;;4978287;28;21837;-61
2021/11/26 01:27:50;;;;;;;49.10;26.20;;;4.30;99.90;;;;;;4977300;28;20485;-60
2021/11/26 01:30:23;;;;;;;44.23;26.60;;;4.30;99.90;;;;;;4974980;28;20493;-61
2021/11/26 01:32:49;;;;;;;49.03;26.27;;;4.50;99.90;;;;;;4977127;28;20196;-61
2021/11/26 01:35:15;;;;;;;45.77;22.70;;;4.30;99.90;;;;;;4974987;28;21065;-61
2021/11/26 01:37:40;;;;;;;44.33;24.97;;;4.30;99.90;;;;;;4978532;28;20437;-61
2021/11/26 01:40:07;;;;;;;46.60;24.87;;;4.20;99.90;;;;;;4975290;28;20212;-61
2021/11/26 01:42:33;;;;;;;43.00;24.23;;;4.00;99.90;;;;;;4977255;28;20190;-61
2021/11/26 01:44:59;;;;;;;40.27;22.40;;;4.10;99.90;;;;;;4962397;28;20421;-61
2021/11/26 01:47:25;;;;;;;43.23;22.87;;;4.20;99.90;;;;;;4979750;28;20429;-61
2021/11/26 01:49:51;;;;;;;35.60;20.60;;;4.30;99.90;;;;;;4974241;28;20460;-61
2021/11/26 01:52:17;;;;;;;42.03;23.53;;;4.30;99.90;;;;;;4982359;28;20190;-61
2021/11/26 01:54:42;;;;;;;43.20;22.97;;;4.30;99.90;;;;;;4977711;28;20198;-61
2021/11/26 01:57:08;;;;;;;44.33;24.67;;;4.20;99.90;;;;;;4979639;28;20189;-61
2021/11/26 01:59:34;;;;;;;49.70;26.03;;;4.30;99.90;;;;;;4956374;28;20307;-61
2021/11/26 02:01:59;;;;;;;42.07;22.97;;;4.10;99.90;;;;;;4976831;28;20465;-60
2021/11/26 02:04:25;;;;;;;46.27;24.13;;;4.20;99.90;;;;;;4976803;28;20719;-61
2021/11/26 02:06:51;;;;;;;39.33;22.97;;;4.10;99.90;;;;;;4974510;28;20174;-61
2021/11/26 02:09:16;;;;;;;44.43;26.50;;;4.00;99.90;;;;;;4975987;28;20210;-61
2021/11/26 02:11:43;;;;;;;45.47;26.20;;;4.00;99.90;;;;;;4961495;28;20244;-60
2021/11/26 02:14:09;;;;;;;49.30;24.93;;;4.10;99.90;;;;;;4975261;28;20198;-61
2021/11/26 02:16:46;;;;;;;41.47;23.60;;;4.10;99.90;;;;;;4978142;28;20441;-61
2021/11/26 02:19:12;;;;;;;40.50;22.53;;;4.20;99.90;;;;;;4977423;28;20964;-61
2021/11/26 02:21:38;;;;;;;42.53;22.07;;;4.30;99.90;;;;;;4975510;28;20468;-62
2021/11/26 02:24:04;;;;;;;42.07;23.63;;;4.10;99.90;;;;;;4975785;28;20926;-61
2021/11/26 02:26:35;;;;;;;37.67;21.90;;;4.20;99.90;;;;;;4977914;28;20483;-61
2021/11/26 02:29:00;;;;;;;38.73;21.90;;;4.20;99.90;;;;;;4976263;28;20892;-61
2021/11/26 02:31:26;;;;;;;43.80;23.93;;;4.30;99.90;;;;;;4974611;28;20973;-61
2021/11/26 02:33:52;;;;;;;35.67;20.50;;;4.30;99.90;;;;;;4975823;28;20199;-61
2021/11/26 02:36:17;;;;;;;35.33;21.30;;;4.40;99.90;;;;;;4975394;28;20190;-61
2021/11/26 02:38:43;;;;;;;42.30;22.53;;;4.40;99.90;;;;;;4977062;28;20221;-61
2021/11/26 02:41:08;;;;;;;36.70;20.87;;;4.30;99.90;;;;;;4974282;28;20206;-61
2021/11/26 02:43:34;;;;;;;40.17;23.20;;;4.20;99.90;;;;;;4979267;28;20185;-61
2021/11/26 02:46:00;;;;;;;42.30;22.27;;;4.20;99.90;;;;;;4972699;28;20197;-61
2021/11/26 02:48:25;;;;;;;38.10;20.90;;;4.20;99.90;;;;;;4975882;28;20245;-62
2021/11/26 02:50:51;;;;;;;40.27;21.77;;;4.20;99.90;;;;;;4975317;28;20943;-60
2021/11/26 02:53:17;;;;;;;35.17;20.40;;;4.10;99.90;;;;;;4973797;28;20252;-61
2021/11/26 02:55:43;;;;;;;41.83;24.07;;;4.10;99.90;;;;;;4976277;28;20186;-61
2021/11/26 02:58:09;;;;;;;41.53;22.87;;;4.10;99.90;;;;;;4977590;28;20221;-60
2021/11/26 03:00:38;;;;;;;38.53;22.20;;;4.10;99.90;;;;;;4976743;28;20555;-60
2021/11/26 03:03:03;;;;;;;42.53;23.33;;;4.20;99.90;;;;;;4977386;28;20434;-60
2021/11/26 03:05:30;;;;;;;38.50;21.47;;;4.20;99.90;;;;;;4977513;28;20838;-60
2021/11/26 03:07:55;;;;;;;43.70;22.47;;;4.10;99.90;;;;;;4974805;28;20474;-59
2021/11/26 03:10:22;;;;;;;42.97;23.50;;;4.20;99.90;;;;;;4978801;28;20428;-62
2021/11/26 03:12:55;;;;;;;40.73;22.53;;;4.00;99.90;;;;;;4975226;28;20209;-60
2021/11/26 03:15:21;;;;;;;46.57;25.20;;;4.00;99.90;;;;;;4972219;28;20430;-60
2021/11/26 03:17:47;;;;;;;42.53;22.60;;;3.90;99.90;;;;;;4974254;28;20432;-60
2021/11/26 03:20:15;;;;;;;41.93;21.53;;;3.90;99.90;;;;;;4975046;28;20492;-60
2021/11/26 03:22:41;;;;;;;44.10;24.83;;;3.90;99.90;;;;;;4976742;28;20468;-60
2021/11/26 03:25:08;;;;;;;40.90;21.67;;;3.90;99.90;;;;;;4975873;28;20444;-60
2021/11/26 03:27:34;;;;;;;42.20;24.30;;;3.90;99.90;;;;;;4977800;28;20516;-60
2021/11/26 03:30:00;;;;;;;45.10;22.53;;;3.90;99.90;;;;;;4972775;28;20567;-60
2021/11/26 03:32:26;;;;;;;42.83;22.60;;;3.80;99.90;;;;;;4976102;28;20661;-60
2021/11/26 03:34:51;;;;;;;42.43;22.53;;;3.80;99.90;;;;;;4973375;28;20425;-60
2021/11/26 03:37:17;;;;;;;44.90;22.30;;;3.70;99.90;;;;;;4976815;28;20198;-60
2021/11/26 03:39:43;;;;;;;40.77;20.80;;;3.90;99.90;;;;;;4974667;28;20261;-60
2021/11/26 03:42:09;;;;;;;37.73;21.20;;;4.10;99.90;;;;;;4977128;28;20232;-60
2021/11/26 03:44:35;;;;;;;42.30;23.77;;;4.10;99.90;;;;;;4976107;28;20892;-61
2021/11/26 03:47:00;;;;;;;45.40;24.17;;;3.90;99.90;;;;;;4975499;28;20476;-60
2021/11/26 03:49:26;;;;;;;38.80;20.97;;;3.90;99.90;;;;;;4974017;28;20237;-61
2021/11/26 03:51:52;;;;;;;36.83;20.57;;;4.00;99.90;;;;;;4972814;28;20224;-61
2021/11/26 03:54:17;;;;;;;41.20;22.93;;;4.00;99.90;;;;;;4973911;28;20244;-61
2021/11/26 03:56:43;;;;;;;40.10;22.10;;;3.90;99.90;;;;;;4971790;28;20181;-61
2021/11/26 03:59:09;;;;;;;44.23;22.53;;;4.10;99.90;;;;;;4974211;28;20554;-61
2021/11/26 04:01:34;;;;;;;44.20;23.70;;;4.00;99.90;;;;;;4974943;28;20243;-60
2021/11/26 04:04:00;;;;;;;43.03;23.00;;;3.90;99.90;;;;;;4974771;28;20196;-60
2021/11/26 04:06:26;;;;;;;44.97;25.07;;;3.80;99.90;;;;;;4973136;28;20182;-60
2021/11/26 04:08:52;;;;;;;43.93;22.47;;;3.90;99.90;;;;;;4976242;28;20863;-60
2021/11/26 04:11:17;;;;;;;46.77;23.20;;;3.90;99.90;;;;;;4973139;28;20241;-60
2021/11/26 04:13:43;;;;;;;46.50;24.00;;;4.00;99.90;;;;;;4978803;28;20702;-60
2021/11/26 04:16:13;;;;;;;39.40;21.53;;;3.80;99.90;;;;;;4975679;28;20190;-60
2021/11/26 04:18:40;;;;;;;40.00;22.07;;;3.90;99.90;;;;;;4965877;28;20532;-60
2021/11/26 04:21:06;;;;;;;41.97;22.33;;;3.90;99.90;;;;;;4980038;28;20911;-60
2021/11/26 04:23:32;;;;;;;40.40;24.10;;;4.00;99.90;;;;;;4977746;28;20437;-59
2021/11/26 04:25:58;;;;;;;37.93;21.20;;;4.00;99.90;;;;;;4980274;28;20179;-60
2021/11/26 04:28:24;;;;;;;44.53;24.17;;;3.90;99.90;;;;;;4981421;28;20464;-60
2021/11/26 04:30:50;;;;;;;45.33;23.20;;;3.80;99.90;;;;;;4978070;28;20240;-60
2021/11/26 04:33:16;;;;;;;39.17;22.57;;;3.90;99.90;;;;;;4977711;28;20451;-60
2021/11/26 04:35:46;;;;;;;41.27;21.80;;;3.90;99.90;;;;;;4981145;28;20447;-60
2021/11/26 04:38:12;;;;;;;36.27;24.43;;;3.90;99.90;;;;;;4976662;28;20834;-60
2021/11/26 04:40:38;;;;;;;41.83;21.97;;;3.80;99.90;;;;;;4979971;28;20453;-60
2021/11/26 04:43:03;;;;;;;44.73;24.03;;;3.70;99.90;;;;;;4977166;28;20284;-60
2021/11/26 04:45:29;;;;;;;39.07;21.17;;;3.80;99.90;;;;;;4978516;28;20230;-61
2021/11/26 04:47:54;;;;;;;39.90;21.40;;;3.70;99.90;;;;;;4979317;28;20775;-60
2021/11/26 04:50:20;;;;;;;49.90;22.80;;;3.70;99.90;;;;;;4977766;28;20638;-61
2021/11/26 04:52:46;;;;;;;47.47;23.87;;;3.70;99.90;;;;;;4978405;28;20186;-61
2021/11/26 04:55:13;;;;;;;46.97;24.57;;;3.60;99.90;;;;;;4960395;28;20731;-61
2021/11/26 04:57:39;;;;;;;38.97;21.07;;;3.70;99.90;;;;;;4976706;28;20189;-61
2021/11/26 05:00:06;;;;;;;46.03;23.40;;;3.80;99.90;;;;;;4977715;28;20448;-61
2021/11/26 05:02:31;;;;;;;45.83;21.80;;;3.90;99.90;;;;;;4979309;28;20213;-61
2021/11/26 05:04:57;;;;;;;40.13;20.10;;;3.90;99.90;;;;;;4960070;28;20753;-60
2021/11/26 05:07:24;;;;;;;43.50;21.63;;;4.00;99.90;;;;;;4976005;28;20186;-60
2021/11/26 05:09:51;;;;;;;41.17;22.57;;;3.90;99.90;;;;;;4978079;28;20630;-60
2021/11/26 05:12:17;;;;;;;43.13;22.63;;;4.00;99.90;;;;;;4977706;28;20433;-61
2021/11/26 05:14:43;;;;;;;34.90;21.50;;;3.90;99.90;;;;;;4977158;28;20441;-61
2021/11/26 05:17:08;;;;;;;42.30;22.80;;;3.90;99.90;;;;;;4975583;28;20182;-61
2021/11/26 05:19:34;;;;;;;37.97;21.53;;;3.80;99.90;;;;;;4976012;28;20229;-61
2021/11/26 05:21:59;;;;;;;43.97;22.73;;;3.80;99.90;;;;;;4978015;28;20224;-61
2021/11/26 05:24:25;;;;;;;41.20;22.30;;;3.80;99.90;;;;;;4978111;28;20189;-60
2021/11/26 05:26:50;;;;;;;41.40;22.00;;;3.80;99.90;;;;;;4978174;28;20194;-60
2021/11/26 05:29:16;;;;;;;46.80;23.80;;;3.90;99.90;;;;;;4975473;28;20272;-60
2021/11/26 05:31:42;;;;;;;52.17;25.20;;;3.70;99.90;;;;;;4975685;28;20926;-61
2021/11/26 05:34:09;;;;;;;53.20;24.37;;;3.70;99.90;;;;;;4976833;28;20186;-60
2021/11/26 05:36:36;;;;;;;43.83;24.10;;;3.80;99.90;;;;;;4977079;28;20198;-60
2021/11/26 05:39:04;;;;;;;41.70;23.33;;;3.80;99.90;;;;;;4975495;28;20469;-61
2021/11/26 05:41:30;;;;;;;45.37;23.90;;;3.80;99.90;;;;;;4978826;28;20472;-60
2021/11/26 05:43:56;;;;;;;41.60;22.07;;;3.80;99.90;;;;;;4977598;28;20625;-60
2021/11/26 05:46:21;;;;;;;41.63;22.50;;;3.80;99.90;;;;;;4979462;28;20192;-61
2021/11/26 05:48:47;;;;;;;34.77;21.40;;;4.00;99.90;;;;;;4977402;28;20572;-60
2021/11/26 05:51:13;;;;;;;39.87;21.77;;;3.90;99.90;;;;;;4977030;28;20334;-60
2021/11/26 05:53:39;;;;;;;39.37;20.97;;;3.90;99.90;;;;;;4978517;28;20466;-61
2021/11/26 05:56:05;;;;;;;37.77;21.77;;;3.90;99.90;;;;;;4976807;28;20625;-61
2021/11/26 05:58:32;;;;;;;44.40;24.20;;;4.00;99.90;;;;;;4962676;28;20468;-61
2021/11/26 06:00:58;;;;;;;38.57;22.53;;;4.00;99.90;;;;;;4978467;28;20194;-61
2021/11/26 06:03:24;;;;;;;43.23;22.90;;;4.00;99.90;;;;;;4975957;28;20806;-61
2021/11/26 06:05:49;;;;;;;47.10;23.93;;;4.00;99.90;;;;;;4978721;28;20440;-61
2021/11/26 06:08:15;;;;;;;39.70;21.50;;;4.00;99.90;;;;;;4978627;28;20207;-61
2021/11/26 06:10:41;;;;;;;43.13;22.53;;;4.00;99.90;;;;;;4980528;28;20198;-61
2021/11/26 06:13:06;;;;;;;48.67;22.13;;;3.80;99.90;;;;;;4974968;28;20196;-61
2021/11/26 06:15:32;;;;;;;48.07;22.87;;;3.80;99.90;;;;;;4980426;28;20305;-61
2021/11/26 06:17:58;;;;;;;41.43;22.83;;;3.70;99.90;;;;;;4975656;28;20205;-61
2021/11/26 06:20:24;;;;;;;45.30;21.90;;;3.80;99.90;;;;;;4981718;28;20198;-61
2021/11/26 06:22:51;;;;;;;40.93;20.43;;;3.70;99.90;;;;;;4960753;28;20900;-61
2021/11/26 06:25:18;;;;;;;46.73;23.90;;;3.80;99.90;;;;;;4979483;28;20584;-60
2021/11/26 06:27:45;;;;;;;42.90;21.23;;;3.70;99.90;;;;;;4976203;28;20430;-60
2021/11/26 06:30:12;;;;;;;42.87;23.00;;;3.70;99.90;;;;;;4972874;28;20472;-60
2021/11/26 06:32:42;;;;;;;43.33;22.47;;;3.70;99.90;;;;;;4977607;28;20437;-60
2021/11/26 06:35:09;;;;;;;47.77;22.10;;;3.70;99.90;;;;;;4973034;28;20966;-60
2021/11/26 06:37:35;;;;;;;41.47;21.80;;;3.60;99.90;;;;;;4972694;28;20833;-60
2021/11/26 06:40:02;;;;;;;40.23;21.30;;;3.60;99.90;;;;;;4977475;28;20466;-60
2021/11/26 06:42:28;;;;;;;37.83;22.47;;;3.60;99.90;;;;;;4977064;28;20425;-60
2021/11/26 06:44:53;;;;;;;43.90;23.70;;;3.50;99.90;;;;;;4975976;28;20429;-60
2021/11/26 06:47:21;;;;;;;39.43;20.90;;;3.60;99.90;;;;;;4960756;28;20626;-60
2021/11/26 06:49:47;;;;;;;44.53;21.70;;;3.50;99.90;;;;;;4956201;28;20285;-61
2021/11/26 06:52:13;;;;;;;41.60;22.63;;;3.50;99.90;;;;;;4973479;28;20923;-61
2021/11/26 06:54:39;;;;;;;44.97;23.40;;;3.50;99.90;;;;;;4973913;28;20441;-60
2021/11/26 06:57:05;;;;;;;47.43;23.00;;;3.60;99.90;;;;;;4972947;28;20437;-60
2021/11/26 06:59:30;;;;;;;38.73;21.77;;;3.50;99.90;;;;;;4975340;28;20321;-60
2021/11/26 07:01:56;;;;;;;44.50;23.23;;;3.60;99.90;;;;;;4973697;28;20220;-60
2021/11/26 07:04:23;;;;;;;42.23;23.07;;;3.60;99.90;;;;;;4972377;28;20182;-61
2021/11/26 07:06:49;;;;;;;42.30;23.67;;;3.50;99.90;;;;;;4973256;28;20179;-60
2021/11/26 07:09:15;;;;;;;44.00;19.00;;;3.50;99.90;;;;;;4972238;28;20815;-60
2021/11/26 07:11:40;;;;;;;44.67;23.40;;;3.50;99.90;;;;;;4971843;28;20807;-60
2021/11/26 07:14:06;;;;;;;43.10;21.17;;;3.40;99.90;;;;;;4971951;28;20241;-60
2021/11/26 07:16:32;;;;;;;39.37;22.33;;;3.50;99.90;;;;;;4972377;28;20201;-61
2021/11/26 07:18:58;;;;;;;48.80;22.53;;;3.40;99.90;;;;;;4974043;28;20202;-60
2021/11/26 07:21:24;;;;;;;42.77;23.50;;;3.40;99.90;;;;;;4973799;28;20551;-61
2021/11/26 07:23:50;;;;;;;41.53;22.80;;;3.50;99.90;;;;;;4973877;28;20668;-61
2021/11/26 07:26:15;;;;;;;49.20;22.47;;;3.40;99.90;;;;;;4973074;28;21156;-60
2021/11/26 07:28:41;;;;;;;45.50;22.50;;;3.40;99.90;;;;;;4971204;28;20202;-60
2021/11/26 07:31:08;;;;;;;41.93;22.90;;;3.40;99.90;;;;;;4975225;28;20246;-61
2021/11/26 07:33:33;;;;;;;43.47;22.53;;;3.50;99.90;;;;;;4969771;28;20209;-61
2021/11/26 07:35:59;;;;;;;39.87;22.57;;;3.40;99.90;;;;;;4972743;28;20437;-60
2021/11/26 07:38:25;;;;;;;44.70;22.80;;;3.50;99.90;;;;;;4975370;28;20680;-60
2021/11/26 07:40:52;;;;;;;46.63;23.67;;;3.50;99.90;;;;;;4976971;28;20578;-60
2021/11/26 07:43:21;;;;;;;44.10;22.73;;;3.50;99.90;;;;;;4975945;28;20175;-60
2021/11/26 07:45:48;;;;;;;44.70;22.63;;;3.60;99.90;;;;;;4975516;28;20863;-60
2021/11/26 07:48:14;;;;;;;43.80;21.53;;;3.60;99.90;;;;;;4977385;28;20504;-60
2021/11/26 07:50:39;;;;;;;43.20;23.33;;;3.60;99.90;;;;;;4978743;28;20469;-60
2021/11/26 07:53:05;;;;;;;50.43;23.60;;;3.70;99.90;;;;;;4978633;28;20191;-59
2021/11/26 07:55:31;;;;;;;45.27;25.10;;;3.70;99.90;;;;;;4979635;28;20217;-59
2021/11/26 07:57:57;;;;;;;41.40;21.30;;;3.70;99.90;;;;;;4981611;28;20205;-58
2021/11/26 08:00:22;;;;;;;45.30;24.40;;;3.70;99.90;;;;;;4977024;28;20555;-59
2021/11/26 08:02:48;;;;;;;43.37;23.03;;;3.70;99.90;;;;;;4974796;28;20311;-60
2021/11/26 08:05:15;;;;;;;44.37;23.03;;;3.70;99.90;;;;;;4976309;28;20194;-57
2021/11/26 08:07:41;;;;;;;43.17;25.50;;;3.60;99.90;;;;;;4976385;28;20230;-60
2021/11/26 08:10:09;;;;;;;40.17;21.57;;;3.60;99.90;;;;;;4976907;28;20461;-60
2021/11/26 08:12:39;;;;;;;50.13;22.50;;;3.60;99.90;;;;;;4980046;28;20442;-60
2021/11/26 08:15:07;;;;;;;41.50;21.43;;;3.60;99.90;;;;;;4977956;28;20591;-59
2021/11/26 08:17:33;;;;;;;40.87;22.33;;;3.60;99.90;;;;;;4978616;28;20513;-60
2021/11/26 08:19:59;;;;;;;40.70;20.23;;;3.70;99.90;;;;;;4965511;28;20589;-57
2021/11/26 08:22:25;;;;;;;46.57;22.93;;;3.70;99.90;;;;;;4976988;28;20201;-59
2021/11/26 08:24:51;;;;;;;41.37;25.30;;;3.70;99.90;;;;;;4978606;28;20557;-55
2021/11/26 08:27:16;;;;;;;55.40;24.00;;;3.70;99.90;;;;;;4978249;28;20459;-58
2021/11/26 08:29:42;;;;;;;38.73;23.77;;;3.70;99.90;;;;;;4975763;28;20206;-57
2021/11/26 08:32:08;;;;;;;40.27;21.97;;;3.80;99.90;;;;;;4977078;28;20190;-59
2021/11/26 08:34:34;;;;;;;40.20;23.43;;;3.80;99.90;;;;;;4976789;28;20881;-58
2021/11/26 08:36:59;;;;;;;38.23;20.27;;;3.70;99.90;;;;;;4977839;28;20734;-58
2021/11/26 08:39:25;;;;;;;38.77;19.80;;;3.70;99.90;;;;;;4976894;28;20614;-57
2021/11/26 08:41:51;;;;;;;37.57;20.37;;;3.80;99.90;;;;;;4977283;28;20672;-59
2021/11/26 08:44:17;;;;;;;32.27;16.80;;;3.80;99.90;;;;;;4975704;28;20310;-59
2021/11/26 08:46:43;;;;;;;28.97;18.03;;;3.90;99.90;;;;;;4976250;28;20189;-59
2021/11/26 08:49:08;;;;;;;32.93;19.70;;;4.00;99.90;;;;;;4979289;28;20620;-59
2021/11/26 08:51:37;;;;;;;32.50;21.17;;;4.00;99.90;;;;;;4975890;28;20442;-59
2021/11/26 08:54:03;;;;;;;32.80;19.37;;;4.00;99.90;;;;;;4975921;28;20181;-59
2021/11/26 08:56:29;;;;;;;36.07;18.40;;;4.00;99.90;;;;;;4978888;28;20436;-60
2021/11/26 08:58:55;;;;;;;32.60;18.97;;;4.10;99.90;;;;;;4973410;28;20457;-59
2021/11/26 09:01:21;;;;;;;40.80;21.00;;;4.10;99.90;;;;;;4980286;28;20469;-59
2021/11/26 09:03:49;;;;;;;32.00;19.33;;;4.10;99.90;;;;;;4961494;28;20824;-59
2021/11/26 09:06:19;;;;;;;29.73;18.33;;;4.10;99.90;;;;;;4977290;28;20448;-60
2021/11/26 09:08:45;;;;;;;31.40;18.27;;;4.00;99.90;;;;;;4980490;28;20527;-59
2021/11/26 09:11:11;;;;;;;36.37;19.10;;;4.10;99.90;;;;;;4978818;28;20478;-58
2021/11/26 09:13:37;;;;;;;34.93;17.97;;;4.10;99.90;;;;;;4978389;28;20564;-57
2021/11/26 09:16:03;;;;;;;32.30;18.47;;;4.20;99.90;;;;;;4978859;28;20953;-59
2021/11/26 09:18:29;;;;;;;30.53;18.93;;;4.20;99.90;;;;;;4977242;28;20218;-56
2021/11/26 09:20:55;;;;;;;34.03;20.00;;;4.20;99.90;;;;;;4978436;28;20206;-59
2021/11/26 09:23:22;;;;;;;34.33;19.00;;;4.20;99.90;;;;;;4975886;28;20434;-59
2021/11/26 09:25:48;;;;;;;33.73;18.63;;;4.30;99.90;;;;;;4976246;28;20193;-59
2021/11/26 09:28:15;;;;;;;32.47;17.13;;;4.20;99.90;;;;;;4978414;28;20909;-59
2021/11/26 09:30:41;;;;;;;40.20;20.57;;;4.30;99.90;;;;;;4975184;28;20753;-58
2021/11/26 09:33:07;;;;;;;28.90;15.50;;;4.30;99.90;;;;;;4977082;28;20495;-58
2021/11/26 09:35:33;;;;;;;35.23;18.97;;;4.30;99.90;;;;;;4977319;28;20437;-60
2021/11/26 09:38:00;;;;;;;34.20;19.33;;;4.20;99.90;;;;;;4980036;28;20437;-60
2021/11/26 09:40:27;;;;;;;37.60;21.87;;;4.20;99.90;;;;;;4976919;28;20460;-59
2021/11/26 09:42:53;;;;;;;37.70;20.90;;;4.20;99.90;;;;;;4977121;28;20437;-60
2021/11/26 09:45:22;;;;;;;37.93;19.73;;;4.20;99.90;;;;;;4979266;28;20846;-59
2021/11/26 09:47:49;;;;;;;36.83;20.20;;;4.20;99.90;;;;;;4973441;28;20189;-59
2021/11/26 09:50:15;;;;;;;37.47;21.60;;;4.30;99.90;;;;;;4973983;28;20440;-57
2021/11/26 09:52:42;;;;;;;37.83;20.80;;;4.30;99.90;;;;;;4973091;28;21127;-60
2021/11/26 09:55:09;;;;;;;37.00;21.30;;;4.20;99.90;;;;;;4975274;28;20536;-59
2021/11/26 09:57:35;;;;;;;42.77;22.33;;;4.20;99.90;;;;;;4974480;28;20532;-60
2021/11/26 10:00:05;;;;;;;34.43;18.83;;;4.30;99.90;;;;;;4976034;28;20456;-59
2021/11/26 10:02:30;;;;;;;36.67;19.87;;;4.30;99.90;;;;;;4974992;28;20429;-60
2021/11/26 10:05:08;;;;;;;35.63;18.90;;;4.40;99.90;;;;;;4959250;28;20493;-60
2021/11/26 10:07:45;;;;;;;30.40;18.47;;;4.30;99.90;;;;;;4975631;28;20679;-59
2021/11/26 10:10:12;;;;;;;39.40;21.10;;;4.30;99.90;;;;;;4957573;28;20768;-60
2021/11/26 10:12:38;;;;;;;32.57;18.93;;;4.40;99.90;;;;;;4976591;28;20456;-60
2021/11/26 10:15:05;;;;;;;31.80;17.47;;;4.40;99.90;;;;;;4974155;28;20477;-59
2021/11/26 10:17:31;;;;;;;40.33;18.80;;;4.30;99.90;;;;;;4976670;28;20244;-59
2021/11/26 10:19:59;;;;;;;36.57;21.40;;;4.40;99.90;;;;;;4978855;28;20958;-60
2021/11/26 10:22:32;;;;;;;39.13;21.13;;;4.40;99.90;;;;;;4976235;28;20750;-60
2021/11/26 10:25:18;;;;;;;39.13;22.10;;;4.50;99.90;;;;;;4975348;28;20484;-59
2021/11/26 10:27:47;;;;;;;35.93;20.47;;;4.40;99.90;;;;;;4974584;28;20431;-59
2021/11/26 10:30:29;;;;;;;40.50;21.40;;;4.40;99.90;;;;;;4975095;28;20567;-59
2021/11/26 10:33:05;;;;;;;38.00;19.90;;;4.40;99.90;;;;;;4976823;28;20425;-60
2021/11/26 10:35:40;;;;;;;33.93;18.50;;;4.30;99.90;;;;;;4974685;28;20413;-60
2021/11/26 10:38:12;;;;;;;35.60;18.80;;;4.30;99.90;;;;;;4976214;28;20857;-60
2021/11/26 10:40:43;;;;;;;40.73;21.50;;;4.40;99.90;;;;;;4979186;28;20467;-60
2021/11/26 10:43:27;;;;;;;33.83;20.50;;;4.40;99.90;;;;;;4977126;28;20454;-60
2021/11/26 10:46:26;;;;;;;33.83;18.67;;;4.40;99.90;;;;;;4975613;28;20683;-60
2021/11/26 10:59:26;;;;;;;40.40;20.80;;;4.50;99.90;;;;;;4976954;28;20524;-60
2021/11/26 11:01:52;;;;;;;37.10;20.27;;;4.50;99.90;;;;;;4976899;28;20465;-60
2021/11/26 11:04:20;;;;;;;35.37;20.27;;;4.50;99.90;;;;;;4971179;28;20437;-60
2021/11/26 11:07:02;;;;;;;33.40;18.37;;;4.60;99.90;;;;;;4974504;28;20460;-60
2021/11/26 11:09:39;;;;;;;24.70;13.07;;;4.60;99.90;;;;;;4973492;28;20485;-60
2021/11/26 11:12:05;;;;;;;33.23;19.00;;;4.50;99.90;;;;;;4976100;28;20444;-60
2021/11/26 11:14:31;;;;;;;34.47;19.10;;;4.50;99.90;;;;;;4976851;28;20425;-60
2021/11/26 11:16:57;;;;;;;29.27;17.20;;;4.50;99.90;;;;;;4971934;28;20445;-60
2021/11/26 11:19:24;;;;;;;37.43;19.67;;;4.60;99.90;;;;;;4970379;28;20213;-60
2021/11/26 11:21:52;;;;;;;34.20;20.20;;;4.50;99.90;;;;;;4974326;28;20543;-60
2021/11/26 11:24:18;;;;;;;32.67;19.80;;;4.50;99.90;;;;;;4955889;28;21046;-60
2021/11/26 11:26:47;;;;;;;36.80;19.27;;;4.60;99.90;;;;;;4975163;28;20875;-61
2021/11/26 11:29:14;;;;;;;43.13;24.67;;;4.70;99.90;;;;;;4970294;28;20513;-60
2021/11/26 11:31:42;;;;;;;36.23;20.20;;;4.70;99.90;;;;;;4971481;28;20449;-59
2021/11/26 11:34:08;;;;;;;39.20;19.83;;;4.60;99.90;;;;;;4969645;28;20476;-59
2021/11/26 11:36:39;;;;;;;37.00;20.93;;;4.60;99.90;;;;;;4973856;28;20795;-59
2021/11/26 11:39:06;;;;;;;38.53;21.23;;;4.60;99.90;;;;;;4971399;28;20497;-59
2021/11/26 11:41:52;;;;;;;38.13;21.00;;;4.60;99.90;;;;;;4970449;28;20922;-60
2021/11/26 11:44:29;;;;;;;39.57;22.13;;;4.60;99.90;;;;;;4972137;28;20795;-59
2021/11/26 11:47:00;;;;;;;38.23;21.07;;;4.70;99.90;;;;;;4973625;28;20421;-59
2021/11/26 11:49:29;;;;;;;34.50;20.57;;;4.60;99.90;;;;;;4970034;28;20453;-59
2021/11/26 11:52:03;;;;;;;35.27;20.07;;;4.70;99.90;;;;;;4973152;28;20446;-58
2021/11/26 11:54:59;;;;;;;36.33;20.90;;;4.80;99.90;;;;;;4971237;28;20777;-59
2021/11/26 11:57:27;;;;;;;36.27;20.50;;;4.70;99.90;;;;;;4939998;28;20521;-58
2021/11/26 12:00:07;;;;;;;42.20;22.23;;;4.70;99.90;;;;;;4972221;28;20454;-61
2021/11/26 12:02:33;;;;;;;40.93;21.50;;;4.80;99.90;;;;;;4973487;28;20433;-59
2021/11/26 12:04:58;;;;;;;38.73;20.80;;;4.80;99.90;;;;;;4973357;28;20436;-61
2021/11/26 12:07:27;;;;;;;38.93;21.40;;;4.80;99.90;;;;;;4971067;28;20514;-61
2021/11/26 12:10:09;;;;;;;46.00;24.70;;;4.80;99.90;;;;;;4969035;28;20242;-59
2021/11/26 12:12:53;;;;;;;35.73;20.13;;;4.90;99.90;;;;;;4953907;28;20529;-60
2021/11/26 12:15:22;;;;;;;36.60;21.50;;;4.90;99.90;;;;;;4952822;28;20444;-60
2021/11/26 12:17:57;;;;;;;38.43;22.20;;;4.90;99.90;;;;;;4972236;28;20465;-61
2021/11/26 12:20:25;;;;;;;42.47;20.70;;;5.00;99.90;;;;;;4971119;28;21012;-59
2021/11/26 12:22:54;;;;;;;33.60;19.20;;;4.90;99.90;;;;;;4972795;28;20465;-57
2021/11/26 12:25:46;;;;;;;34.83;20.77;;;5.10;99.90;;;;;;4971780;28;20465;-58
2021/11/26 12:28:24;;;;;;;42.20;20.50;;;5.00;99.90;;;;;;4970572;28;20919;-60
2021/11/26 12:31:04;;;;;;;37.63;22.40;;;5.00;99.90;;;;;;4973108;28;20916;-60
2021/11/26 12:33:30;;;;;;;35.70;21.13;;;5.10;99.90;;;;;;4973406;28;20438;-60
2021/11/26 12:36:03;;;;;;;42.43;21.97;;;5.20;99.90;;;;;;4973718;28;20965;-60
2021/11/26 12:38:51;;;;;;;40.50;21.57;;;5.30;99.90;;;;;;4975587;28;20461;-60
2021/11/26 12:41:32;;;;;;;36.10;19.57;;;5.30;99.90;;;;;;4972133;28;20483;-60
2021/11/26 12:43:58;;;;;;;34.47;17.20;;;5.20;99.90;;;;;;4974100;28;20446;-61
2021/11/26 12:46:30;;;;;;;37.93;21.20;;;5.10;99.90;;;;;;4977192;28;20456;-62
2021/11/26 12:51:03;;;;;;;29.07;19.03;;;5.10;99.90;;;;;;4974364;28;20449;-61